Tiempo atmosférico en la estación meteorológica de Barbate, Cádiz (4 m.)



Fecha
DESCASC
Temp. máxima en grados centígrados (hora)
DESCASC
Temp. mínima en grados centígrados (hora)
DESCASC
Temp. media en grados centígrados
DESCASC
Racha de viento máxima en m/sg (hora)
DESCASC
Velocidad máxima media en intervalos de 10 minutos(hora)
DESCASC
Precipitaciones diarias en mm
DESCASC
Precipitaciones de 00:00 a 06:00 en mm
DESCASC
Precipitaciones de 06:00 a 12:00 en mm
DESCASC
Precipitaciones de 12:00 a 18:00 en mm
DESCASC
Precipitaciones de 18:00 a 24:00 en mm
DESCASC
03-12-2020 19.7 (14:50) 10.7 (08:20) 15.2 7.22 (17:50) 5.83 (17:00) 0 0 0 0 0
02-12-2020 19.6 (15:50) 8.3 (08:40) 14 7.22 (14:50) 4.72 (14:00) 0.2 0.2 0 0 0
01-12-2020 21 (15:50) 11.7 (23:40) 16.3 6.67 (00:40) 3.89 (16:40) 0 0 0 0 0
30-11-2020 20 (14:50) 15.7 (00:00) 17.8 13.33 (13:00) 7.5 (12:00) 0 0 0 0 0
29-11-2020 17.8 (12:30) 15.1 (00:00) 16.4 13.89 (01:00) 11.67 (05:00) 3.8 3.2 0.4 0.2 0
28-11-2020 18.3 (14:30) 10.5 (00:00) 14.4 14.44 (23:50) 11.39 (23:30) 1.2 0 0 0.8 0.4
27-11-2020 14.6 (09:50) 8.7 (00:00) 11.7 15.28 (15:40) 12.22 (15:40) 28.8 0 0.6 27.8 0.4
26-11-2020 15.4 (16:40) 11.1 (00:00) 13.3 18.89 (11:00) 15.83 (10:40) 1 0.8 0.2 0 0
25-11-2020 18 (00:00) 12.7 (00:00) 15.3 15 (12:20) 12.5 (12:20) 27.8 0 0 18.6 9.2
24-11-2020 20.7 (14:00) 13.7 (00:00) 17.2 9.72 (19:00) 7.5 (20:00) 0 0 0 0 0
23-11-2020 20.6 (13:50) 15.1 (00:00) 17.9 16.94 (04:10) 8.33 (03:20) 0 0 0 0 0
22-11-2020 20 (14:00) 14.8 (00:00) 17.4 16.94 (09:50) 9.72 (12:10) 0 0 0 0 0
21-11-2020 20.9 (13:30) 17.1 (00:00) 19 16.67 (13:40) 10.56 (13:40) 0 0 0 0 0
20-11-2020 21.5 (14:50) 16.5 (00:00) 19 14.72 (08:40) 9.72 (11:50) 0 0 0 0 0
19-11-2020 21.9 (13:20) 17.1 (00:00) 19.5 17.78 (01:40) 11.11 (22:20) 0 0 0 0 0
18-11-2020 23.2 (14:20) 15.1 (00:00) 19.2 11.67 (15:40) 8.06 (15:30) 0 0 0 0 0
17-11-2020 23.7 (15:30) 14.6 (00:00) 19.2 5 (05:00) 3.33 (04:40) 0.2 0.2 0 0 0
16-11-2020 20.8 (12:00) 13.5 (00:00) 17.1 7.22 (14:20) 5.83 (16:00) 0 0 0 0 0
15-11-2020 24.5 (16:10) 14.4 (00:00) 19.4 4.44 (04:50) 2.78 (18:40) 0 0 0 0 0
14-11-2020 21.2 (16:30) 15.7 (00:00) 18.5 7.78 (10:50) 6.39 (10:40) 6 0.6 5.2 0.2 0
13-11-2020 22 (12:50) 16.2 (00:00) 19.1 8.33 (22:40) 6.39 (23:00) 0 0 0 0 0
12-11-2020 21.9 (13:50) 17.3 (00:00) 19.6 14.17 (11:40) 9.44 (11:40) 0 0 0 0 0
11-11-2020 21.8 (15:20) 16.9 (00:00) 19.3 17.5 (11:40) 11.39 (11:50) 0 0 0 0 0
10-11-2020 22.8 (16:20) 10.1 (00:00) 16.4 9.44 (20:40) 6.39 (20:50) 0.2 0 0.2 0 0
09-11-2020 20.2 (14:40) 11.9 (00:00) 16.1 6.11 (16:10) 5.28 (16:10) 9.8 0 9.8 0 0
08-11-2020 23 (14:50) 12.5 (00:00) 17.8 5.83 (13:10) 4.72 (12:50) 0 0 0 0 0
07-11-2020 22.2 (15:50) 14.5 (00:00) 18.4 18.61 (02:30) 14.44 (02:30) 2.8 2.6 0.2 0 0
06-11-2020 22.8 (11:40) 18.4 (00:00) 20.6 14.17 (08:30) 10.83 (22:40) 0.2 0 0 0 0.2
05-11-2020 24.6 (14:40) 16 (00:00) 20.3 17.22 (03:30) 13.33 (04:10) 5 4.8 0.2 0 0

Gráficas

Temp. máximas Temp. mínimas Temp. medias Precipitaciones Rachas de viento máximas Velocidades máximas media en intervalos de 10 minutos

Datos horarios

Fecha y hora oficial Temperatura (ºC) Velocidad del viento (km/h) Dirección del viento Racha (km/h) Dirección de racha Precipitación (mm) Presión (hPa) Tendencia (hPa) Humedad (%)
2020-12-04 23:00:00 10 17 Noroeste 32 Noroeste 0 -- -- 74
2020-12-04 22:00:00 9.9 16 Noroeste 29 Noroeste 0 -- -- 80
2020-12-04 21:00:00 9.7 16 Noroeste 29 Noroeste 0.6 -- -- 87
2020-12-04 20:00:00 9.4 16 Noroeste 49 Norte 1.2 -- -- 91
2020-12-04 19:00:00 10 11 Norte 38 Noroeste 2.6 -- -- 96
2020-12-04 18:00:00 12.3 27 Noroeste 58 Noroeste 1.2 -- -- 90
2020-12-04 17:00:00 14.9 36 Noroeste 57 Noroeste 0 -- -- 76
2020-12-04 16:00:00 13.6 32 Noroeste 58 Noroeste 0.2 -- -- 90
2020-12-04 15:00:00 13.8 21 Oeste 50 Noroeste 1.2 -- -- 94
2020-12-04 14:00:00 14.9 25 Noroeste 54 Noroeste 5.2 -- -- 82
2020-12-04 13:00:00 16.9 44 Oeste 60 Oeste 0 -- -- 83
2020-12-04 12:00:00 16 35 Oeste 72 Oeste 0 -- -- 81
2020-12-04 11:00:00 14.8 32 Oeste 53 Oeste 0.8 -- -- 86
2020-12-04 10:00:00 17.3 32 Oeste 54 Oeste 0 -- -- 68
2020-12-04 09:00:00 15.9 29 Oeste 45 Oeste 0 -- -- 85
2020-12-04 08:00:00 14 15 Oeste 45 Noroeste 0.8 -- -- 89
2020-12-04 07:00:00 15.5 32 Oeste 41 Oeste 1.2 -- -- 88
2020-12-04 06:00:00 15.7 32 Oeste 44 Oeste 0.8 -- -- 85
2020-12-04 05:00:00 15.5 20 Oeste 32 Oeste 0 -- -- 74
2020-12-04 04:00:00 13.3 8 Noroeste 14 Oeste 0 -- -- 80
2020-12-04 03:00:00 13 6 Noroeste 19 Noroeste 0 -- -- 84
2020-12-04 02:00:00 14.3 15 Noroeste 23 Noroeste 0 -- -- 82
2020-12-04 01:00:00 15.2 9 Oeste 18 Oeste 0 -- -- 79
2020-12-04 00:00:00 14.6 7 Oeste 14 Oeste 0 -- -- 78
2020-12-03 23:00:00 14.4 7 Noroeste 15 Noroeste 0 -- -- 81
2020-12-03 22:00:00 14.7 9 Noroeste 14 Noroeste 0 -- -- 83
2020-12-03 21:00:00 14.2 5 Oeste 8 Oeste 0 -- -- 86
2020-12-03 20:00:00 14.5 4 Oeste 12 Oeste 0 -- -- 85
2020-12-03 19:00:00 15.4 7 Oeste 21 Noroeste 0 -- -- 86
2020-12-03 18:00:00 17.2 17 Oeste 26 Oeste 0 -- -- 76
2020-12-03 17:00:00 17.9 21 Sudoeste 24 Sudoeste 0 -- -- 81
2020-12-03 16:00:00 19 16 Sudoeste 21 Sur 0 -- -- 73
2020-12-03 15:00:00 19.6 12 Sur 14 Sudoeste 0 -- -- 73
2020-12-03 14:00:00 19.1 10 Sudoeste 13 Sudoeste 0 -- -- 70
2020-12-03 13:00:00 18.5 8 Sudoeste 9 Oeste 0 -- -- 70
2020-12-03 12:00:00 17.4 3 Nordeste 9 Norte 0 -- -- 73
2020-12-03 11:00:00 15.6 4 Norte 12 Norte 0 -- -- 82
2020-12-03 10:00:00 13.3 8 Norte 12 Norte 0 -- -- 92
2020-12-03 09:00:00 11.5 5 Norte 10 Noroeste 0 -- -- 98
2020-12-03 08:00:00 10.9 5 Norte 14 Sudeste 0 -- -- 95
2020-12-03 07:00:00 12 5 Este 14 Este 0 -- -- 92
2020-12-03 06:00:00 11.3 4 Nordeste 19 Este 0 -- -- 96
2020-12-03 05:00:00 11.3 6 Norte 10 Norte 0 -- -- 97
2020-12-03 04:00:00 11.3 6 Norte 15 Norte 0 -- -- 98
2020-12-03 03:00:00 11 6 Norte 12 Norte 0 -- -- 99
2020-12-03 02:00:00 11.2 6 Norte 12 Norte 0 -- -- 98
2020-12-03 01:00:00 11.1 5 Norte 12 Norte 0 -- -- 98
2020-12-03 00:00:00 10.9 8 Norte 13 Norte 0 -- -- 97
2020-12-02 23:00:00 10.8 6 Norte 9 Norte 0 -- -- 97
2020-12-02 22:00:00 11.2 4 Nordeste 6 Nordeste 0 -- -- 95
2020-12-02 21:00:00 12.9 0 Calma 6 Nordeste 0 -- -- 90
2020-12-02 20:00:00 13.8 4 Este 7 Este 0 -- -- 88
2020-12-02 19:00:00 15.3 2 Norte 5 Oeste 0 -- -- 79
2020-12-02 18:00:00 16.8 0 Calma 16 Norte 0 -- -- 73
2020-12-02 17:00:00 18.1 8 Noroeste 23 Noroeste 0 -- -- 72
2020-12-02 16:00:00 19.1 13 Noroeste 19 Oeste 0 -- -- 72
2020-12-02 15:00:00 18.5 17 Oeste 26 Oeste 0 -- -- 83
2020-12-02 14:00:00 18.5 17 Sudoeste 21 Sudoeste 0 -- -- 83
2020-12-02 13:00:00 18.9 7 Sudoeste 12 Sudoeste 0 -- -- 83
2020-12-02 12:00:00 16.8 5 Sudoeste 11 Sur 0 -- -- 91
2020-12-02 11:00:00 12.5 5 Nordeste 10 Nordeste 0 -- -- 99
2020-12-02 10:00:00 10.1 6 Nordeste 12 Norte 0 -- -- 100
2020-12-02 09:00:00 8.5 8 Norte 13 Norte 0 -- -- 100
2020-12-02 08:00:00 8.6 9 Norte 12 Norte 0 -- -- 100
2020-12-02 07:00:00 9.6 5 Norte 8 Norte 0 -- -- 100
2020-12-02 06:00:00 9.8 4 Norte 10 Norte 0.2 -- -- 100
2020-12-02 05:00:00 10.5 5 Norte 12 Norte 0 -- -- 100
2020-12-02 04:00:00 10.7 6 Norte 12 Norte 0 -- -- 100
2020-12-02 03:00:00 10.9 6 Norte 10 Nordeste 0 -- -- 100
2020-12-02 02:00:00 11.2 7 Norte 10 Norte 0 -- -- 100
2020-12-02 01:00:00 11.7 5 Norte 10 Norte 0 -- -- 99
2020-12-02 00:00:00 11.8 5 Norte 9 Norte 0 -- -- 99
2020-12-01 23:00:00 12.9 3 Norte 5 Oeste 0 -- -- 95
2020-12-01 22:00:00 13.9 4 Norte 6 Norte 0 -- -- 96
2020-12-01 21:00:00 14.8 5 Este 6 Este 0 -- -- 93
2020-12-01 20:00:00 16.3 5 Oeste 12 Oeste 0 -- -- 89
2020-12-01 19:00:00 16.9 9 Oeste 15 Oeste 0 -- -- 86
2020-12-01 18:00:00 18.3 9 Oeste 17 Sur 0 -- -- 83
2020-12-01 17:00:00 19.6 13 Sur 18 Sur 0 -- -- 79
2020-12-01 16:00:00 20.8 10 Sur 13 Sur 0 -- -- 74
2020-12-01 15:00:00 20.8 10 Sur 17 Sur 0 -- -- 77
2020-12-01 14:00:00 20.6 13 Sur 18 Sur 0 -- -- 75
2020-12-01 13:00:00 20.2 6 Oeste 10 Sur 0 -- -- 71
2020-12-01 12:00:00 19.9 3 Sur 9 Norte 0 -- -- 71
2020-12-01 11:00:00 16.8 4 Nordeste 11 Norte 0 -- -- 83
2020-12-01 10:00:00 14.8 5 Norte 14 Noroeste 0 -- -- 90
2020-12-01 09:00:00 13.8 6 Norte 14 Norte 0 -- -- 94
2020-12-01 08:00:00 13.7 8 Norte 14 Norte 0 -- -- 94
2020-12-01 07:00:00 13.8 7 Norte 12 Norte 0 -- -- 94
2020-12-01 06:00:00 14.2 7 Norte 12 Norte 0 -- -- 92
2020-12-01 05:00:00 15 6 Norte 14 Norte 0 -- -- 90
2020-12-01 04:00:00 15.5 6 Norte 17 Norte 0 -- -- 88
2020-12-01 03:00:00 15.6 7 Noroeste 20 Norte 0 -- -- 88
2020-12-01 02:00:00 15.6 5 Norte 19 Este 0 -- -- 86
2020-12-01 01:00:00 15.8 12 Nordeste 24 Este 0 -- -- 86
2020-12-01 00:00:00 15.7 10 Nordeste 20 Nordeste 0 -- -- 87
2020-11-30 23:00:00 16.2 6 Norte 14 Nordeste 0 -- -- 83
2020-11-30 22:00:00 16.3 4 Norte 17 Nordeste 0 -- -- 83
2020-11-30 21:00:00 16.7 6 Nordeste 21 Nordeste 0 -- -- 82
2020-11-30 20:00:00 16.6 9 Norte 22 Norte 0 -- -- 82
2020-11-30 19:00:00 16.8 6 Nordeste 29 Sudeste 0 -- -- 81
2020-11-30 18:00:00 17.4 19 Este 38 Este 0 -- -- 80
2020-11-30 17:00:00 18.3 18 Este 39 Este 0 -- -- 76
2020-11-30 16:00:00 19 18 Este 38 Sudeste 0 -- -- 72
2020-11-30 15:00:00 20 14 Este 33 Este 0 -- -- 68
2020-11-30 14:00:00 19.6 26 Sudeste 44 Sudeste 0 -- -- 70
2020-11-30 13:00:00 19.6 24 Este 48 Este 0 -- -- 70
2020-11-30 12:00:00 18.5 27 Este 46 Este 0 -- -- 74
2020-11-30 11:00:00 18.8 17 Este 35 Este 0 -- -- 74
2020-11-30 10:00:00 18.1 16 Nordeste 29 Nordeste 0 -- -- 77
2020-11-30 09:00:00 16.5 8 Nordeste 42 Este 0 -- -- 81
2020-11-30 08:00:00 16.3 19 Este 40 Este 0 -- -- 83
2020-11-30 07:00:00 16.3 21 Este 36 Este 0 -- -- 84
2020-11-30 06:00:00 16.3 18 Este 33 Este 0 -- -- 83
2020-11-30 05:00:00 16.5 22 Este 40 Este 0 -- -- 83
2020-11-30 04:00:00 16.3 12 Este 29 Este 0 -- -- 84
2020-11-30 03:00:00 16.3 17 Este 40 Este 0 -- -- 84
2020-11-30 02:00:00 16.4 21 Este 38 Este 0 -- -- 84
2020-11-30 01:00:00 16.6 21 Sudeste 36 Este 0 -- -- 84
2020-11-30 00:00:00 16.4 17 Sudeste 33 Sudeste 0 -- -- 85
2020-11-29 23:00:00 16.1 6 Sudeste 19 Sudeste 0 -- -- 83
2020-11-29 22:00:00 15.9 11 Este 18 Este 0 -- -- 84
2020-11-29 21:00:00 15.9 5 Nordeste 21 Este 0 -- -- 82
2020-11-29 20:00:00 15.6 5 Este 15 Este 0 -- -- 84
2020-11-29 19:00:00 15.8 3 Este 22 Sudeste 0 -- -- 86
2020-11-29 18:00:00 16.6 16 Sudeste 26 Sudeste 0 -- -- 85
2020-11-29 17:00:00 17.2 13 Sudeste 20 Sudeste 0 -- -- 84
2020-11-29 16:00:00 17.6 13 Sudeste 24 Sudeste 0 -- -- 83
2020-11-29 15:00:00 17.5 14 Sudeste 24 Sudeste 0 -- -- 82
2020-11-29 14:00:00 17.6 11 Sudeste 22 Sudeste 0 -- -- 82
2020-11-29 13:00:00 17.7 12 Sudeste 28 Sudeste 0.2 -- -- 82
2020-11-29 12:00:00 16.8 15 Sudeste 27 Sudeste 0 -- -- 85
2020-11-29 11:00:00 16.2 19 Sudeste 25 Sudeste 0 -- -- 87
2020-11-29 10:00:00 15.6 15 Sudeste 35 Sur 0.2 -- -- 89
2020-11-29 09:00:00 15.5 15 Sudeste 27 Sur 0.2 -- -- 90
2020-11-29 08:00:00 16.2 29 Sur 38 Sur 0 -- -- 85
2020-11-29 07:00:00 15.6 27 Sur 44 Sur 0 -- -- 90
2020-11-29 06:00:00 15.8 37 Sur 48 Sur 0 -- -- 89
2020-11-29 05:00:00 15.5 42 Sur 48 Sur 1 -- -- 91
2020-11-29 04:00:00 15.5 34 Sur 43 Sur 1.2 -- -- 94
2020-11-29 03:00:00 16 36 Sur 46 Sur 0.2 -- -- 94
2020-11-29 02:00:00 16 37 Sur 44 Sur 0.6 -- -- 92
2020-11-29 01:00:00 16 41 Sur 50 Sur 0.2 -- -- 93
2020-11-29 00:00:00 16.2 40 Sudoeste 52 Sudoeste 0.4 -- -- 94
2020-11-28 23:00:00 16.6 39 Sur 46 Sur 0 -- -- 90
2020-11-28 22:00:00 16.9 35 Sudoeste 44 Sudoeste 0 -- -- 87
2020-11-28 21:00:00 17.6 20 Sudoeste 28 Sudoeste 0 -- -- 86
2020-11-28 20:00:00 17.2 19 Sudoeste 25 Sudoeste 0 -- -- 84
2020-11-28 19:00:00 17 15 Sudoeste 22 Oeste 0 -- -- 84
2020-11-28 18:00:00 16.4 14 Oeste 43 Oeste 0.8 -- -- 86
2020-11-28 17:00:00 17.3 18 Sudoeste 26 Sudoeste 0 -- -- 84
2020-11-28 16:00:00 17.5 23 Oeste 41 Sudoeste 0 -- -- 79
2020-11-28 15:00:00 17.6 28 Sudoeste 33 Sudoeste 0 -- -- 77
2020-11-28 14:00:00 18 28 Oeste 36 Sudoeste 0 -- -- 74
2020-11-28 13:00:00 17.8 20 Oeste 31 Oeste 0 -- -- 74
2020-11-28 12:00:00 17.5 25 Oeste 30 Oeste 0 -- -- 74
2020-11-28 11:00:00 16.9 18 Oeste 27 Sudoeste 0 -- -- 74
2020-11-28 10:00:00 15.2 19 Sudoeste 34 Sudoeste 0 -- -- 89
2020-11-28 09:00:00 14 27 Sudoeste 33 Sudoeste 0 -- -- 97
2020-11-28 08:00:00 11 4 Este 9 Norte 0 -- -- 100
2020-11-28 07:00:00 10.9 6 Norte 11 Norte 0 -- -- 100
2020-11-28 06:00:00 10.5 7 Norte 11 Nordeste 0 -- -- 100
2020-11-28 05:00:00 10.6 6 Nordeste 10 Nordeste 0 -- -- 100
2020-11-28 04:00:00 10.8 5 Norte 8 Norte 0 -- -- 99
2020-11-28 03:00:00 11 5 Norte 9 Norte 0 -- -- 98
2020-11-28 02:00:00 11.2 3 Norte 7 Nordeste 0 -- -- 99
2020-11-28 01:00:00 11.3 3 Norte 8 Norte 0 -- -- 98
2020-11-28 00:00:00 11.6 3 Norte 46 Oeste 0 -- -- 94
2020-11-27 23:00:00 14 9 Oeste 36 Sudoeste 0 -- -- 86
2020-11-27 22:00:00 13.7 23 Sudoeste 30 Sudoeste 0 -- -- 86
2020-11-27 21:00:00 13.4 24 Sur 35 Sur 0 -- -- 90
2020-11-27 20:00:00 12.9 22 Sur 32 Sur 0 -- -- 95
2020-11-27 19:00:00 12.5 11 Sur 30 Sur 0.4 -- -- 97
2020-11-27 18:00:00 11.9 22 Sur 46 Sudoeste 13 -- -- 99
2020-11-27 17:00:00 13.3 23 Sur 51 Sudoeste 9.6 -- -- 98
2020-11-27 16:00:00 13.5 41 Sudoeste 55 Sudoeste 2.2 -- -- 95
2020-11-27 15:00:00 14.4 39 Sudoeste 51 Sudoeste 0.4 -- -- 88
2020-11-27 14:00:00 13.8 40 Sur 47 Sur 1.2 -- -- 95
2020-11-27 13:00:00 14.2 28 Sudoeste 37 Sudoeste 1.4 -- -- 89
2020-11-27 12:00:00 13.9 29 Sudoeste 42 Sudoeste 0.6 -- -- 95
2020-11-27 11:00:00 14.4 32 Sudoeste 40 Sudoeste 0 -- -- 89
2020-11-27 10:00:00 14.5 33 Sudoeste 40 Sudoeste 0 -- -- 85
2020-11-27 09:00:00 13.7 27 Sur 32 Sudoeste 0 -- -- 84
2020-11-27 08:00:00 8.8 2 Noroeste 15 Oeste 0 -- -- 96
2020-11-27 07:00:00 9.2 6 Norte 16 Norte 0 -- -- 95
2020-11-27 06:00:00 8.8 6 Norte 10 Norte 0 -- -- 96
2020-11-27 05:00:00 9 8 Nordeste 12 Norte 0 -- -- 94
2020-11-27 04:00:00 9.6 6 Norte 11 Norte 0 -- -- 91
2020-11-27 03:00:00 9.7 6 Norte 13 Norte 0 -- -- 94
2020-11-27 02:00:00 9.9 7 Norte 13 Norte 0 -- -- 93
2020-11-27 01:00:00 10.3 5 Norte 9 Norte 0 -- -- 91
2020-11-27 00:00:00 11.1 5 Norte 12 Norte 0 -- -- 88
2020-11-26 23:00:00 12.5 6 Sudeste 16 Sudeste 0 -- -- 82
2020-11-26 22:00:00 13.1 9 Sudeste 25 Sur 0 -- -- 82
2020-11-26 21:00:00 14.2 23 Sur 36 Sur 0 -- -- 73
2020-11-26 20:00:00 13.6 26 Sur 42 Sudoeste 0 -- -- 78
2020-11-26 19:00:00 13.3 38 Sudoeste 51 Sudoeste 0 -- -- 82
2020-11-26 18:00:00 14.8 33 Sur 54 Sur 0 -- -- 71
2020-11-26 17:00:00 15.3 39 Sur 50 Sur 0 -- -- 70
2020-11-26 16:00:00 14.7 44 Sur 57 Sur 0 -- -- 79
2020-11-26 15:00:00 15.1 39 Sur 54 Sur 0 -- -- 71
2020-11-26 14:00:00 14.5 43 Sur 61 Sur 0 -- -- 76
2020-11-26 13:00:00 13.9 39 Sur 52 Sur 0 -- -- 84
2020-11-26 12:00:00 12.4 38 Sudoeste 68 Sur 0.2 -- -- 95
2020-11-26 11:00:00 14.6 55 Sur 68 Sur 0 -- -- 78
2020-11-26 10:00:00 14.7 49 Sur 62 Sur 0 -- -- 80
2020-11-26 09:00:00 14.6 46 Sur 59 Sur 0 -- -- 82
2020-11-26 08:00:00 14.6 43 Sur 55 Sur 0 -- -- 75
2020-11-26 07:00:00 14.6 40 Sur 56 Sur 0 -- -- 83
2020-11-26 06:00:00 14.5 35 Sur 46 Sur 0 -- -- 86
2020-11-26 05:00:00 14.4 35 Sur 44 Sur 0 -- -- 86
2020-11-26 04:00:00 14.9 33 Sur 48 Sur 0 -- -- 85
2020-11-26 03:00:00 14.6 32 Sur 40 Sur 0.2 -- -- 89
2020-11-26 02:00:00 14.5 26 Sur 32 Sur 0.4 -- -- 89
2020-11-26 01:00:00 14.4 13 Sudoeste 24 Oeste 0.2 -- -- 87
2020-11-26 00:00:00 14.5 15 Oeste 21 Sudoeste 1.4 -- -- 89
2020-11-25 23:00:00 14.8 20 Sudoeste 49 Sudoeste 2.4 -- -- 94
2020-11-25 22:00:00 15.4 25 Sur 34 Sur 0.8 -- -- 95
2020-11-25 21:00:00 14.4 12 Sudeste 23 Sudeste 0.2 -- -- 94
2020-11-25 20:00:00 14.5 16 Sudeste 40 Sudeste 3 -- -- 93
2020-11-25 19:00:00 14.5 28 Sudeste 37 Sudeste 1.4 -- -- 94
2020-11-25 18:00:00 13.9 5 Noroeste 12 Sudeste 0.2 -- -- 94
2020-11-25 17:00:00 13.6 10 Sudeste 17 Este 3.8 -- -- 99
2020-11-25 16:00:00 12.8 5 Este 33 Noroeste 6 -- -- 97
2020-11-25 15:00:00 15.7 21 Sur 46 Sudoeste 6.8 -- -- 92
2020-11-25 14:00:00 16.9 26 Sur 40 Sur 0.8 -- -- 89
2020-11-25 13:00:00 16.5 36 Sur 54 Sur 1 -- -- 92
2020-11-25 12:00:00 16.8 35 Sur 49 Sur 0 -- -- 92
2020-11-25 11:00:00 17.9 36 Sur 48 Sur 0 -- -- 86
2020-11-25 10:00:00 17.5 39 Sur 46 Sur 0 -- -- 88
2020-11-25 09:00:00 16.9 40 Sur 45 Sur 0 -- -- 91
2020-11-25 08:00:00 16.8 37 Sur 44 Sudoeste 0 -- -- 92
2020-11-25 07:00:00 16.6 32 Sur 38 Sur 0 -- -- 93
2020-11-25 06:00:00 16.9 28 Sudoeste 36 Sudoeste 0 -- -- 93
2020-11-25 05:00:00 17 28 Sudoeste 33 Sudoeste 0 -- -- 92
2020-11-25 04:00:00 15.3 5 Norte 8 Nordeste 0 -- -- 87
2020-11-25 03:00:00 15.7 5 Nordeste 6 Norte 0 -- -- 84
2020-11-25 02:00:00 17.4 4 Noroeste 12 Oeste 0 -- -- 76
2020-11-25 01:00:00 17.6 9 Oeste 13 Oeste 0 -- -- 75
2020-11-25 00:00:00 18 8 Oeste 24 Oeste 0 -- -- 79
2020-11-24 23:00:00 18.4 19 Oeste 25 Oeste 0 -- -- 81
2020-11-24 22:00:00 18.2 17 Oeste 30 Oeste 0 -- -- 79
2020-11-24 21:00:00 18.3 23 Oeste 33 Sur 0 -- -- 78
2020-11-24 20:00:00 17.9 27 Sur 33 Sur 0 -- -- 84
2020-11-24 19:00:00 17.9 26 Sudeste 35 Sur 0 -- -- 79
2020-11-24 18:00:00 18 22 Sur 26 Sur 0 -- -- 79
2020-11-24 17:00:00 18.6 21 Sur 27 Sur 0 -- -- 76
2020-11-24 16:00:00 20.2 20 Sur 27 Sur 0 -- -- 66
2020-11-24 15:00:00 20.6 21 Sur 31 Sur 0 -- -- 66
2020-11-24 14:00:00 20.7 19 Sur 28 Sur 0 -- -- 59
2020-11-24 13:00:00 20.3 21 Sur 30 Sudeste 0 -- -- 61
2020-11-24 12:00:00 19.8 24 Sur 30 Sur 0 -- -- 71
2020-11-24 11:00:00 19.4 21 Sudeste 26 Sudeste 0 -- -- 70
2020-11-24 10:00:00 16.9 2 Nordeste 10 Este 0 -- -- 72
2020-11-24 09:00:00 14.1 4 Nordeste 13 Este 0 -- -- 83
2020-11-24 08:00:00 13.7 8 Este 15 Este 0 -- -- 82
2020-11-24 07:00:00 13.9 7 Este 13 Este 0 -- -- 81
2020-11-24 06:00:00 14.2 11 Este 23 Sudeste 0 -- -- 80
2020-11-24 05:00:00 14.8 12 Sudeste 29 Este 0 -- -- 76
2020-11-24 04:00:00 15 13 Sudeste 25 Este 0 -- -- 74
2020-11-24 03:00:00 15.4 8 Este 22 Sudeste 0 -- -- 69
2020-11-24 02:00:00 15 3 Nordeste 18 Sudeste 0 -- -- 72
2020-11-24 01:00:00 15.3 10 Sudeste 26 Sudeste 0 -- -- 74
2020-11-24 00:00:00 15.4 6 Sudeste 28 Sudeste 0 -- -- 70
2020-11-23 23:00:00 15.6 3 Este 22 Sur 0 -- -- 70
2020-11-23 22:00:00 15.5 15 Sudeste 37 Sudeste 0 -- -- 69
2020-11-23 21:00:00 15.7 14 Sudeste 36 Sudeste 0 -- -- 72
2020-11-23 20:00:00 15.8 10 Sudeste 32 Sudeste 0 -- -- 68
2020-11-23 19:00:00 16.1 15 Sudeste 38 Sudeste 0 -- -- 66
2020-11-23 18:00:00 17.1 16 Sudeste 41 Este 0 -- -- 66
2020-11-23 17:00:00 18.4 24 Este 41 Sudeste 0 -- -- 60
2020-11-23 16:00:00 19.4 26 Este 43 Este 0 -- -- 57
2020-11-23 15:00:00 20.2 28 Este 43 Este 0 -- -- 53
2020-11-23 14:00:00 20.6 22 Este 36 Sudeste 0 -- -- 54
2020-11-23 13:00:00 20.2 21 Este 41 Este 0 -- -- 55
2020-11-23 12:00:00 19.8 22 Este 43 Sudeste 0 -- -- 54
2020-11-23 11:00:00 19.2 21 Sudeste 36 Sudeste 0 -- -- 59
2020-11-23 10:00:00 18 17 Sudeste 35 Este 0 -- -- 62
2020-11-23 09:00:00 15.8 14 Sudeste 25 Sudeste 0 -- -- 69
2020-11-23 08:00:00 15.2 10 Sudeste 45 Este 0 -- -- 68
2020-11-23 07:00:00 15.4 14 Sudeste 51 Este 0 -- -- 67
2020-11-23 06:00:00 15.6 17 Sudeste 57 Este 0 -- -- 64
2020-11-23 05:00:00 15.6 22 Este 61 Este 0 -- -- 62
2020-11-23 04:00:00 15.7 26 Este 55 Este 0 -- -- 64
2020-11-23 03:00:00 15.6 27 Este 56 Este 0 -- -- 66
2020-11-23 02:00:00 15.2 18 Sudeste 38 Este 0 -- -- 68
2020-11-23 01:00:00 15.1 14 Sudeste 25 Este 0 -- -- 69
2020-11-23 00:00:00 15.7 11 Este 32 Este 0 -- -- 67
2020-11-22 23:00:00 15.2 16 Este 33 Sudeste 0 -- -- 71
2020-11-22 22:00:00 15 10 Este 20 Este 0 -- -- 70
2020-11-22 21:00:00 15.2 8 Este 31 Sudeste 0 -- -- 68
2020-11-22 20:00:00 15.4 9 Sudeste 26 Este 0 -- -- 64
2020-11-22 19:00:00 15.8 10 Sudeste 29 Este 0 -- -- 62
2020-11-22 18:00:00 16.8 17 Este 40 Este 0 -- -- 55
2020-11-22 17:00:00 18 26 Este 47 Este 0 -- -- 50
2020-11-22 16:00:00 19 28 Este 51 Este 0 -- -- 49
2020-11-22 15:00:00 19.7 28 Este 52 Este 0 -- -- 46
2020-11-22 14:00:00 20 27 Este 49 Este 0 -- -- 47
2020-11-22 13:00:00 19.7 33 Este 51 Este 0 -- -- 50
2020-11-22 12:00:00 19.2 32 Este 54 Este 0 -- -- 47
2020-11-22 11:00:00 18.5 31 Este 54 Este 0 -- -- 54
2020-11-22 10:00:00 17.5 29 Este 61 Sudeste 0 -- -- 54
2020-11-22 09:00:00 16.4 26 Este 56 Este 0 -- -- 60
2020-11-22 08:00:00 16.1 24 Este 53 Este 0 -- -- 61
2020-11-22 07:00:00 16.1 22 Sudeste 51 Sudeste 0 -- -- 66
2020-11-22 06:00:00 16.4 27 Sudeste 49 Sudeste 0 -- -- 61
2020-11-22 05:00:00 16.3 17 Sudeste 41 Sudeste 0 -- -- 63
2020-11-22 04:00:00 16.5 15 Sudeste 51 Sudeste 0 -- -- 62
2020-11-22 03:00:00 16.6 16 Este 48 Sudeste 0 -- -- 66
2020-11-22 02:00:00 16.8 18 Este 40 Este 0 -- -- 66
2020-11-22 01:00:00 17 23 Sudeste 52 Sudeste 0 -- -- 63
2020-11-22 00:00:00 17.2 28 Sudeste 57 Sudeste 0 -- -- 68
2020-11-21 23:00:00 17.2 20 Sudeste 44 Sudeste 0 -- -- 68
2020-11-21 22:00:00 17.3 23 Este 41 Este 0 -- -- 69
2020-11-21 21:00:00 17.4 21 Este 36 Este 0 -- -- 73
2020-11-21 20:00:00 17.3 17 Este 41 Este 0 -- -- 75
2020-11-21 19:00:00 17.6 21 Este 37 Este 0 -- -- 77
2020-11-21 18:00:00 18.4 23 Este 46 Este 0 -- -- 74
2020-11-21 17:00:00 19.5 24 Este 53 Este 0 -- -- 68
2020-11-21 16:00:00 20.2 32 Este 57 Este 0 -- -- 65
2020-11-21 15:00:00 20.7 30 Este 59 Sudeste 0 -- -- 63
2020-11-21 14:00:00 20 30 Este 60 Sudeste 0 -- -- 68
2020-11-21 13:00:00 20.8 33 Este 54 Este 0 -- -- 67
2020-11-21 12:00:00 20.7 31 Sudeste 47 Sudeste 0 -- -- 64
2020-11-21 11:00:00 20.3 23 Sudeste 42 Sudeste 0 -- -- 67
2020-11-21 10:00:00 19.4 19 Sudeste 33 Sudeste 0 -- -- 70
2020-11-21 09:00:00 17.9 23 Sudeste 44 Sudeste 0 -- -- 80
2020-11-21 08:00:00 17.3 20 Sudeste 51 Este 0 -- -- 80
2020-11-21 07:00:00 17.5 19 Este 47 Sudeste 0 -- -- 78
2020-11-21 06:00:00 17.3 26 Sudeste 54 Sudeste 0 -- -- 80
2020-11-21 05:00:00 17.2 21 Este 43 Este 0 -- -- 81
2020-11-21 04:00:00 17.1 17 Sudeste 36 Sudeste 0 -- -- 79
2020-11-21 03:00:00 17.1 21 Sudeste 43 Sudeste 0 -- -- 78
2020-11-21 02:00:00 17.4 21 Sudeste 41 Este 0 -- -- 79
2020-11-21 01:00:00 17.3 14 Este 45 Este 0 -- -- 77
2020-11-21 00:00:00 17.1 12 Nordeste 33 Nordeste 0 -- -- 77
2020-11-20 23:00:00 17.4 19 Este 41 Nordeste 0 -- -- 79
2020-11-20 22:00:00 17.8 25 Este 42 Este 0 -- -- 75
2020-11-20 21:00:00 17.8 24 Este 43 Este 0 -- -- 73
2020-11-20 20:00:00 17.4 19 Este 32 Este 0 -- -- 79
2020-11-20 19:00:00 17.8 23 Este 34 Este 0 -- -- 76
2020-11-20 18:00:00 18.9 16 Este 29 Este 0 -- -- 72
2020-11-20 17:00:00 20.2 19 Este 37 Este 0 -- -- 67
2020-11-20 16:00:00 20.8 19 Este 34 Este 0 -- -- 66
2020-11-20 15:00:00 21.4 20 Este 39 Este 0 -- -- 64
2020-11-20 14:00:00 21.2 26 Este 44 Este 0 -- -- 65
2020-11-20 13:00:00 21.4 26 Este 39 Este 0 -- -- 66
2020-11-20 12:00:00 20.6 28 Este 46 Este 0 -- -- 68
2020-11-20 11:00:00 20 27 Este 48 Sudeste 0 -- -- 71
2020-11-20 10:00:00 19 23 Este 41 Este 0 -- -- 74
2020-11-20 09:00:00 17.8 27 Este 53 Este 0 -- -- 79
2020-11-20 08:00:00 17.4 24 Este 45 Sudeste 0 -- -- 80
2020-11-20 07:00:00 17.1 20 Este 41 Este 0 -- -- 81
2020-11-20 06:00:00 17.2 29 Este 42 Este 0 -- -- 82
2020-11-20 05:00:00 16.8 26 Nordeste 33 Nordeste 0 -- -- 83
2020-11-20 04:00:00 17.2 19 Este 34 Nordeste 0 -- -- 80
2020-11-20 03:00:00 16.5 6 Norte 24 Nordeste 0 -- -- 83
2020-11-20 02:00:00 17.2 21 Nordeste 41 Este 0 -- -- 82
2020-11-20 01:00:00 17.2 17 Nordeste 34 Este 0 -- -- 84
2020-11-20 00:00:00 17.2 19 Nordeste 39 Nordeste 0 -- -- 84
2020-11-19 23:00:00 17.3 26 Nordeste 56 Este 0 -- -- 81
2020-11-19 22:00:00 17.8 35 Este 58 Este 0 -- -- 79
2020-11-19 21:00:00 17.8 36 Este 48 Este 0 -- -- 78
2020-11-19 20:00:00 17.8 24 Este 52 Nordeste 0 -- -- 79
2020-11-19 19:00:00 18.2 32 Este 51 Este 0 -- -- 78
2020-11-19 18:00:00 18.8 32 Este 57 Este 0 -- -- 75
2020-11-19 17:00:00 19.8 23 Nordeste 50 Este 0 -- -- 71
2020-11-19 16:00:00 20.3 33 Este 53 Este 0 -- -- 69
2020-11-19 15:00:00 20.7 14 Este 43 Este 0 -- -- 65
2020-11-19 14:00:00 21.4 20 Este 44 Sudeste 0 -- -- 65
2020-11-19 13:00:00 21.5 27 Este 49 Este 0 -- -- 65
2020-11-19 12:00:00 21.1 23 Este 48 Este 0 -- -- 69
2020-11-19 11:00:00 20.9 18 Este 32 Este 0 -- -- 72
2020-11-19 10:00:00 19.8 8 Nordeste 32 Este 0 -- -- 74
2020-11-19 09:00:00 18.2 9 Nordeste 25 Este 0 -- -- 81
2020-11-19 08:00:00 17.3 3 Noroeste 20 Este 0 -- -- 82
2020-11-19 07:00:00 17.3 10 Nordeste 24 Este 0 -- -- 82
2020-11-19 06:00:00 17.4 8 Nordeste 25 Norte 0 -- -- 82
2020-11-19 05:00:00 17.5 9 Noroeste 21 Oeste 0 -- -- 83
2020-11-19 04:00:00 17.9 9 Nordeste 25 Sudeste 0 -- -- 79
2020-11-19 03:00:00 17.9 12 Norte 31 Nordeste 0 -- -- 80
2020-11-19 02:00:00 18.1 15 Nordeste 64 Este 0 -- -- 78
2020-11-19 01:00:00 18.2 30 Este 53 Este 0 -- -- 77
2020-11-19 00:00:00 17.8 22 Este 38 Este 0 -- -- 81
2020-11-18 23:00:00 17.8 24 Este 37 Este 0 -- -- 78
2020-11-18 22:00:00 17.4 18 Nordeste 29 Este 0 -- -- 81
2020-11-18 21:00:00 18.2 24 Este 39 Nordeste 0 -- -- 77
2020-11-18 20:00:00 18.3 25 Este 42 Este 0 -- -- 76
2020-11-18 19:00:00 19.1 13 Nordeste 37 Nordeste 0 -- -- 71
2020-11-18 18:00:00 19.7 19 Este 33 Este 0 -- -- 69
2020-11-18 17:00:00 20.8 22 Este 42 Este 0 -- -- 70
2020-11-18 16:00:00 21.8 24 Este 42 Este 0 -- -- 66
2020-11-18 15:00:00 22.4 27 Este 36 Este 0 -- -- 66
2020-11-18 14:00:00 22.9 19 Este 35 Este 0 -- -- 60
2020-11-18 13:00:00 22.4 23 Este 35 Este 0 -- -- 65
2020-11-18 12:00:00 21.7 22 Este 33 Nordeste 0 -- -- 68
2020-11-18 11:00:00 20.9 14 Este 26 Este 0 -- -- 70
2020-11-18 10:00:00 19.8 5 Este 20 Sudeste 0 -- -- 79
2020-11-18 09:00:00 17.5 11 Este 20 Sudeste 0 -- -- 86
2020-11-18 08:00:00 16.6 10 Nordeste 17 Este 0 -- -- 89
2020-11-18 07:00:00 16.1 12 Este 18 Este 0 -- -- 94
2020-11-18 06:00:00 15.6 4 Norte 13 Norte 0 -- -- 95
2020-11-18 05:00:00 15.1 6 Norte 12 Norte 0 -- -- 97
2020-11-18 04:00:00 15.2 7 Norte 12 Norte 0 -- -- 97
2020-11-18 03:00:00 15.2 6 Norte 10 Norte 0 -- -- 96
2020-11-18 02:00:00 15.5 6 Norte 13 Norte 0 -- -- 96
2020-11-18 01:00:00 15.7 6 Noroeste 12 Norte 0 -- -- 95
2020-11-18 00:00:00 16.2 7 Norte 13 Norte 0 -- -- 93
2020-11-17 23:00:00 16.5 8 Noroeste 10 Noroeste 0 -- -- 90
2020-11-17 22:00:00 17.1 7 Norte 10 Norte 0 -- -- 88
2020-11-17 21:00:00 17.4 6 Norte 12 Norte 0 -- -- 87
2020-11-17 20:00:00 18 6 Norte 10 Norte 0 -- -- 84
2020-11-17 19:00:00 19.1 4 Noroeste 10 Oeste 0 -- -- 85
2020-11-17 18:00:00 20.1 4 Sudoeste 10 Oeste 0 -- -- 87
2020-11-17 17:00:00 21.6 6 Sudoeste 16 Sur 0 -- -- 81
2020-11-17 16:00:00 22.5 10 Sur 14 Sur 0 -- -- 79
2020-11-17 15:00:00 22.9 8 Sudoeste 12 Sudoeste 0 -- -- 78
2020-11-17 14:00:00 23.4 4 Sudoeste 11 Sudoeste 0 -- -- 78
2020-11-17 13:00:00 20.7 10 Oeste 12 Sudoeste 0 -- -- 84
2020-11-17 12:00:00 19.8 7 Oeste 9 Oeste 0 -- -- 82
2020-11-17 11:00:00 17.4 5 Oeste 8 Sudoeste 0 -- -- 100
2020-11-17 10:00:00 15.6 3 Norte 8 Norte 0 -- -- 100
2020-11-17 09:00:00 14.9 3 Norte 6 Nordeste 0 -- -- 100
2020-11-17 08:00:00 15 4 Este 10 Nordeste 0 -- -- 100
2020-11-17 07:00:00 15.4 8 Nordeste 16 Nordeste 0 -- -- 100
2020-11-17 06:00:00 15.4 9 Norte 17 Nordeste 0 -- -- 100
2020-11-17 05:00:00 15.6 12 Nordeste 18 Nordeste 0 -- -- 100
2020-11-17 04:00:00 16 8 Nordeste 15 Norte 0 -- -- 100
2020-11-17 03:00:00 15.9 6 Norte 12 Norte 0.2 -- -- 100
2020-11-17 02:00:00 15.7 5 Norte 12 Norte 0 -- -- 100
2020-11-17 01:00:00 15.6 5 Norte 9 Norte 0 -- -- 100
2020-11-17 00:00:00 15.5 5 Norte 11 Norte 0 -- -- 100
2020-11-16 23:00:00 14.8 7 Nordeste 13 Norte 0 -- -- 100
2020-11-16 22:00:00 15.6 5 Norte 10 Norte 0 -- -- 100
2020-11-16 21:00:00 16.5 6 Norte 9 Norte 0 -- -- 97
2020-11-16 20:00:00 17.5 6 Este 8 Nordeste 0 -- -- 93
2020-11-16 19:00:00 18.7 3 Nordeste 5 Noroeste 0 -- -- 91
2020-11-16 18:00:00 20.3 4 Oeste 21 Oeste 0 -- -- 87
2020-11-16 17:00:00 19.7 18 Oeste 24 Sudoeste 0 -- -- 91
2020-11-16 16:00:00 20.1 21 Sudoeste 25 Sudoeste 0 -- -- 89
2020-11-16 15:00:00 20.4 18 Sudoeste 26 Oeste 0 -- -- 88
2020-11-16 14:00:00 20.5 17 Sudoeste 20 Sudoeste 0 -- -- 88
2020-11-16 13:00:00 20.2 16 Sudoeste 18 Sudoeste 0 -- -- 89
2020-11-16 12:00:00 20.8 8 Sudoeste 10 Sudoeste 0 -- -- 84
2020-11-16 11:00:00 18.1 0 Calma 11 Norte 0 -- -- 88
2020-11-16 10:00:00 15.8 7 Norte 12 Norte 0 -- -- 92
2020-11-16 09:00:00 13.9 7 Norte 12 Nordeste 0 -- -- 97
2020-11-16 08:00:00 13.8 7 Norte 11 Norte 0 -- -- 96
2020-11-16 07:00:00 14.3 8 Norte 12 Nordeste 0 -- -- 96
2020-11-16 06:00:00 14.2 9 Nordeste 13 Norte 0 -- -- 98
2020-11-16 05:00:00 14.9 4 Nordeste 8 Norte 0 -- -- 97
2020-11-16 04:00:00 14.9 5 Norte 8 Norte 0 -- -- 96
2020-11-16 03:00:00 15.7 5 Nordeste 7 Norte 0 -- -- 94
2020-11-16 02:00:00 15.6 5 Norte 8 Norte 0 -- -- 95
2020-11-16 01:00:00 16.5 4 Norte 6 Norte 0 -- -- 91
2020-11-16 00:00:00 16.4 6 Nordeste 9 Norte 0 -- -- 94
2020-11-15 23:00:00 16.8 6 Norte 8 Norte 0 -- -- 92
2020-11-15 22:00:00 17.7 5 Norte 8 Norte 0 -- -- 90
2020-11-15 21:00:00 18.5 5 Nordeste 8 Norte 0 -- -- 89
2020-11-15 20:00:00 19.5 4 Nordeste 11 Sur 0 -- -- 86
2020-11-15 19:00:00 20.1 7 Noroeste 13 Sudoeste 0 -- -- 85
2020-11-15 18:00:00 21.3 8 Oeste 12 Oeste 0 -- -- 81
2020-11-15 17:00:00 23.2 8 Oeste 12 Sudoeste 0 -- -- 72
2020-11-15 16:00:00 24.3 5 Sudoeste 8 Sur 0 -- -- 72
2020-11-15 15:00:00 23.2 6 Oeste 10 Oeste 0 -- -- 75
2020-11-15 14:00:00 22.7 8 Oeste 10 Sudoeste 0 -- -- 74
2020-11-15 13:00:00 21.8 6 Oeste 10 Sudoeste 0 -- -- 74
2020-11-15 12:00:00 22.5 4 Nordeste 13 Norte 0 -- -- 78
2020-11-15 11:00:00 19.2 8 Norte 13 Norte 0 -- -- 85
2020-11-15 10:00:00 16.6 5 Norte 10 Norte 0 -- -- 98
2020-11-15 09:00:00 15.4 7 Nordeste 15 Norte 0 -- -- 98
2020-11-15 08:00:00 15.3 8 Norte 13 Norte 0 -- -- 99
2020-11-15 07:00:00 14.6 9 Nordeste 14 Norte 0 -- -- 98
2020-11-15 06:00:00 14.9 10 Norte 15 Norte 0 -- -- 99
2020-11-15 05:00:00 14.4 9 Norte 16 Norte 0 -- -- 100
2020-11-15 04:00:00 15.2 7 Norte 13 Norte 0 -- -- 100
2020-11-15 03:00:00 15.1 6 Nordeste 10 Nordeste 0 -- -- 100
2020-11-15 02:00:00 15.1 7 Nordeste 8 Nordeste 0 -- -- 99
2020-11-15 01:00:00 15.8 4 Norte 8 Norte 0 -- -- 99
2020-11-15 00:00:00 15.9 6 Norte 10 Norte 0 -- -- 99
2020-11-14 23:00:00 16.5 5 Norte 7 Nordeste 0 -- -- 98
2020-11-14 22:00:00 16.9 4 Norte 8 Norte 0 -- -- 97
2020-11-14 21:00:00 17.3 4 Norte 6 Norte 0 -- -- 95
2020-11-14 20:00:00 17.8 4 Norte 6 Norte 0 -- -- 93
2020-11-14 19:00:00 18.5 5 Nordeste 7 Nordeste 0 -- -- 90
2020-11-14 18:00:00 19.8 0 Calma 7 Sudeste 0 -- -- 79
2020-11-14 17:00:00 21.1 5 Sur 10 Sur 0 -- -- 79
2020-11-14 16:00:00 20.8 9 Sur 15 Sur 0 -- -- 80
2020-11-14 15:00:00 20 12 Sur 17 Sur 0 -- -- 85
2020-11-14 14:00:00 19.5 14 Sur 19 Sur 0 -- -- 88
2020-11-14 13:00:00 18.7 17 Sur 25 Sur 0.2 -- -- 90
2020-11-14 12:00:00 18.2 19 Sur 27 Sudeste 0.2 -- -- 93
2020-11-14 11:00:00 18.4 21 Sur 28 Sur 0 -- -- 93
2020-11-14 10:00:00 17.6 20 Sur 28 Sur 0 -- -- 96
2020-11-14 09:00:00 17.4 17 Sur 22 Sur 4.4 -- -- 98
2020-11-14 08:00:00 18.1 13 Sur 25 Sur 0.4 -- -- 92
2020-11-14 07:00:00 18.5 16 Sur 23 Sur 0.2 -- -- 91
2020-11-14 06:00:00 18.6 17 Sur 25 Sur 0 -- -- 90
2020-11-14 05:00:00 18.8 19 Sur 27 Sur 0 -- -- 90
2020-11-14 04:00:00 19 22 Sur 27 Sur 0 -- -- 89
2020-11-14 03:00:00 18.7 20 Sudeste 26 Sur 0.6 -- -- 90
2020-11-14 02:00:00 19 14 Sudeste 19 Sudeste 0 -- -- 85
2020-11-14 01:00:00 19.1 18 Sudeste 23 Sudeste 0 -- -- 86
2020-11-14 00:00:00 19.1 18 Sudeste 29 Sur 0 -- -- 85
2020-11-13 23:00:00 19.2 23 Sur 30 Sur 0 -- -- 84
2020-11-13 22:00:00 19.4 15 Sur 27 Sudeste 0 -- -- 80
2020-11-13 21:00:00 19.4 13 Sudeste 18 Sudeste 0 -- -- 75
2020-11-13 20:00:00 19.3 8 Sudeste 18 Sudeste 0 -- -- 75
2020-11-13 19:00:00 19.7 12 Sudeste 20 Sudeste 0 -- -- 79
2020-11-13 18:00:00 19.8 17 Sudeste 26 Sudeste 0 -- -- 78
2020-11-13 17:00:00 19.9 19 Sur 25 Sudeste 0 -- -- 84
2020-11-13 16:00:00 20.1 18 Sudeste 27 Sudeste 0 -- -- 83
2020-11-13 15:00:00 20.7 18 Sur 26 Sudeste 0 -- -- 79
2020-11-13 14:00:00 20.6 21 Sudeste 26 Sudeste 0 -- -- 81
2020-11-13 13:00:00 21.6 17 Sur 22 Sudeste 0 -- -- 78
2020-11-13 12:00:00 21.4 18 Sur 21 Sur 0 -- -- 77
2020-11-13 11:00:00 20.9 10 Sur 16 Sudeste 0 -- -- 77
2020-11-13 10:00:00 19.1 4 Noroeste 10 Norte 0 -- -- 78
2020-11-13 09:00:00 16.7 6 Norte 8 Norte 0 -- -- 85
2020-11-13 08:00:00 16.5 5 Norte 9 Norte 0 -- -- 85
2020-11-13 07:00:00 17.3 4 Noroeste 8 Norte 0 -- -- 80
2020-11-13 06:00:00 17.2 5 Norte 10 Norte 0 -- -- 83
2020-11-13 05:00:00 17.6 3 Oeste 10 Noroeste 0 -- -- 80
2020-11-13 04:00:00 17.9 3 Este 12 Sudeste 0 -- -- 77
2020-11-13 03:00:00 17.9 4 Noroeste 8 Noroeste 0 -- -- 78
2020-11-13 02:00:00 17.6 5 Este 12 Este 0 -- -- 79
2020-11-13 01:00:00 18.2 4 Este 15 Este 0 -- -- 78
2020-11-13 00:00:00 18.3 5 Sudeste 28 Sudeste 0 -- -- 80
2020-11-12 23:00:00 18.3 15 Sudeste 32 Sudeste 0 -- -- 80
2020-11-12 22:00:00 18.3 14 Sudeste 34 Este 0 -- -- 81
2020-11-12 21:00:00 18.3 8 Sur 24 Sudeste 0 -- -- 81
2020-11-12 20:00:00 18.4 9 Sur 18 Nordeste 0 -- -- 81
2020-11-12 19:00:00 18.3 5 Sur 36 Sudeste 0 -- -- 82
2020-11-12 18:00:00 18.8 22 Sudeste 38 Este 0 -- -- 79
2020-11-12 17:00:00 20.3 22 Sudeste 35 Este 0 -- -- 72
2020-11-12 16:00:00 21.4 21 Sudeste 42 Este 0 -- -- 67
2020-11-12 15:00:00 20.7 24 Este 43 Este 0 -- -- 72
2020-11-12 14:00:00 21.6 27 Sudeste 42 Este 0 -- -- 68
2020-11-12 13:00:00 20.6 24 Este 43 Sudeste 0 -- -- 73
2020-11-12 12:00:00 20.8 26 Sudeste 51 Sudeste 0 -- -- 72
2020-11-12 11:00:00 19.6 32 Este 48 Este 0 -- -- 77
2020-11-12 10:00:00 18.8 24 Sudeste 46 Este 0 -- -- 80
2020-11-12 09:00:00 17.8 24 Este 41 Este 0 -- -- 84
2020-11-12 08:00:00 17.4 20 Este 44 Sudeste 0 -- -- 84
2020-11-12 07:00:00 17.5 25 Este 46 Este 0 -- -- 84
2020-11-12 06:00:00 17.5 22 Sudeste 40 Sudeste 0 -- -- 85
2020-11-12 05:00:00 17.6 18 Sudeste 39 Sudeste 0 -- -- 84
2020-11-12 04:00:00 17.8 22 Sudeste 39 Sudeste 0 -- -- 83
2020-11-12 03:00:00 17.7 13 Sudeste 41 Sudeste 0 -- -- 82
2020-11-12 02:00:00 17.9 25 Este 42 Sudeste 0 -- -- 83
2020-11-12 01:00:00 18 20 Este 36 Este 0 -- -- 83
2020-11-12 00:00:00 17.9 18 Este 45 Este 0 -- -- 83
2020-11-11 23:00:00 17.8 14 Este 26 Este 0 -- -- 83
2020-11-11 22:00:00 17.9 8 Nordeste 30 Este 0 -- -- 83
2020-11-11 21:00:00 17.9 17 Este 29 Este 0 -- -- 83
2020-11-11 20:00:00 18.1 16 Este 40 Este 0 -- -- 83
2020-11-11 19:00:00 18.2 9 Este 40 Este 0 -- -- 82
2020-11-11 18:00:00 18.8 20 Este 43 Este 0 -- -- 80
2020-11-11 17:00:00 19.7 22 Este 47 Este 0 -- -- 75
2020-11-11 16:00:00 21.1 23 Este 42 Sudeste 0 -- -- 69
2020-11-11 15:00:00 21.4 29 Este 51 Este 0 -- -- 66
2020-11-11 14:00:00 21.2 28 Este 60 Este 0 -- -- 69
2020-11-11 13:00:00 21 37 Este 58 Este 0 -- -- 67
2020-11-11 12:00:00 20.5 38 Este 63 Este 0 -- -- 70
2020-11-11 11:00:00 19.9 36 Este 59 Sudeste 0 -- -- 73
2020-11-11 10:00:00 19.6 23 Este 54 Este 0 -- -- 75
2020-11-11 09:00:00 18.4 22 Este 42 Sudeste 0 -- -- 78
2020-11-11 08:00:00 17.5 21 Este 45 Sudeste 0 -- -- 84
2020-11-11 07:00:00 17.4 27 Este 45 Sudeste 0 -- -- 83
2020-11-11 06:00:00 17 14 Este 39 Este 0 -- -- 84
2020-11-11 05:00:00 16.9 10 Este 30 Este 0 -- -- 83
2020-11-11 04:00:00 17.1 11 Este 33 Este 0 -- -- 83
2020-11-11 03:00:00 17.4 7 Nordeste 35 Este 0 -- -- 84
2020-11-11 02:00:00 17.6 22 Este 41 Este 0 -- -- 82
2020-11-11 01:00:00 17.4 19 Este 33 Este 0 -- -- 85
2020-11-11 00:00:00 17 9 Nordeste 22 Este 0 -- -- 87
2020-11-10 23:00:00 16.7 7 Norte 15 Norte 0 -- -- 89
2020-11-10 22:00:00 16.5 5 Norte 25 Este 0 -- -- 86
2020-11-10 21:00:00 17.3 21 Este 34 Este 0 -- -- 81
2020-11-10 20:00:00 17.4 5 Nordeste 10 Este 0 -- -- 78
2020-11-10 19:00:00 18.7 2 Noroeste 13 Este 0 -- -- 69
2020-11-10 18:00:00 20.2 12 Este 24 Este 0 -- -- 63
2020-11-10 17:00:00 21.9 15 Este 23 Este 0 -- -- 56
2020-11-10 16:00:00 22.1 4 Oeste 15 Oeste 0 -- -- 66
2020-11-10 15:00:00 21.1 9 Sudoeste 13 Sur 0 -- -- 71
2020-11-10 14:00:00 21.5 11 Sudoeste 14 Sudoeste 0 -- -- 73
2020-11-10 13:00:00 21.2 7 Sudoeste 9 Sudoeste 0 -- -- 71
2020-11-10 12:00:00 18.5 6 Norte 13 Norte 0 -- -- 74
2020-11-10 11:00:00 15.7 7 Norte 14 Norte 0.2 -- -- 89
2020-11-10 10:00:00 12.9 7 Norte 12 Norte 0 -- -- 100
2020-11-10 09:00:00 11.1 8 Norte 13 Norte 0 -- -- 100
2020-11-10 08:00:00 10.2 7 Norte 13 Norte 0 -- -- 100
2020-11-10 07:00:00 10.2 8 Norte 14 Norte 0 -- -- 100
2020-11-10 06:00:00 11.1 8 Norte 12 Norte 0 -- -- 100
2020-11-10 05:00:00 12.3 6 Norte 10 Nordeste 0 -- -- 100
2020-11-10 04:00:00 12.4 4 Norte 9 Norte 0 -- -- 100
2020-11-10 03:00:00 12.9 6 Norte 10 Nordeste 0 -- -- 100
2020-11-10 02:00:00 13.1 7 Nordeste 12 Nordeste 0 -- -- 100
2020-11-10 01:00:00 13.4 9 Nordeste 13 Nordeste 0 -- -- 99
2020-11-10 00:00:00 13.8 11 Nordeste 13 Nordeste 0 -- -- 97
2020-11-09 23:00:00 14.4 7 Norte 11 Norte 0 -- -- 96
2020-11-09 22:00:00 15 4 Norte 9 Este 0 -- -- 94
2020-11-09 21:00:00 15.3 8 Este 12 Este 0 -- -- 92
2020-11-09 20:00:00 16.4 6 Norte 11 Norte 0 -- -- 85
2020-11-09 19:00:00 17.8 6 Noroeste 10 Oeste 0 -- -- 78
2020-11-09 18:00:00 19.4 7 Oeste 19 Oeste 0 -- -- 78
2020-11-09 17:00:00 19.4 18 Oeste 22 Oeste 0 -- -- 85
2020-11-09 16:00:00 19.8 18 Oeste 22 Sudoeste 0 -- -- 85
2020-11-09 15:00:00 19.8 15 Sudoeste 19 Sudoeste 0 -- -- 86
2020-11-09 14:00:00 19.9 15 Sudoeste 18 Sudoeste 0 -- -- 88
2020-11-09 13:00:00 19.3 11 Sudoeste 13 Sudoeste 0 -- -- 88
2020-11-09 12:00:00 18.5 11 Sudoeste 15 Sudoeste 0 -- -- 94
2020-11-09 11:00:00 17.8 8 Sur 10 Sur 0 -- -- 99
2020-11-09 10:00:00 17 6 Sur 9 Sudeste 0.2 -- -- 100
2020-11-09 09:00:00 16.1 5 Sudeste 18 Noroeste 9.6 -- -- 100
2020-11-09 08:00:00 13 8 Norte 13 Norte 0 -- -- 100
2020-11-09 07:00:00 12.4 6 Norte 10 Norte 0 -- -- 100
2020-11-09 06:00:00 12 7 Norte 11 Norte 0 -- -- 99
2020-11-09 05:00:00 12.1 7 Norte 12 Norte 0 -- -- 99
2020-11-09 04:00:00 12.6 7 Norte 12 Norte 0 -- -- 98
2020-11-09 03:00:00 12.9 6 Norte 10 Norte 0 -- -- 98
2020-11-09 02:00:00 13.3 6 Norte 9 Norte 0 -- -- 98
2020-11-09 01:00:00 14 5 Norte 9 Este 0 -- -- 95
2020-11-09 00:00:00 14.2 5 Nordeste 9 Norte 0 -- -- 96
2020-11-08 23:00:00 14.7 6 Norte 11 Norte 0 -- -- 96
2020-11-08 22:00:00 15.5 7 Norte 11 Norte 0 -- -- 93
2020-11-08 21:00:00 16.6 5 Norte 7 Norte 0 -- -- 91
2020-11-08 20:00:00 17.6 7 Sudeste 13 Sur 0 -- -- 87
2020-11-08 19:00:00 18.8 11 Sur 13 Sur 0 -- -- 88
2020-11-08 18:00:00 20 10 Sur 14 Sur 0 -- -- 84
2020-11-08 17:00:00 21.7 10 Sudoeste 14 Sudoeste 0 -- -- 76
2020-11-08 16:00:00 22.3 10 Sudoeste 13 Sudoeste 0 -- -- 75
2020-11-08 15:00:00 23 11 Sudoeste 19 Sur 0 -- -- 72
2020-11-08 14:00:00 22.5 13 Sudoeste 21 Sur 0 -- -- 69
2020-11-08 13:00:00 21.6 16 Sur 21 Sur 0 -- -- 74
2020-11-08 12:00:00 21.4 14 Sur 18 Sur 0 -- -- 74
2020-11-08 11:00:00 19.7 2 Sudoeste 10 Norte 0 -- -- 75
2020-11-08 10:00:00 16.8 7 Norte 12 Norte 0 -- -- 88
2020-11-08 09:00:00 14.3 7 Norte 10 Norte 0 -- -- 98
2020-11-08 08:00:00 13.2 6 Norte 10 Norte 0 -- -- 100
2020-11-08 07:00:00 12.7 5 Norte 10 Norte 0 -- -- 100
2020-11-08 06:00:00 12.5 6 Norte 10 Norte 0 -- -- 99
2020-11-08 05:00:00 13.1 5 Norte 10 Norte 0 -- -- 97
2020-11-08 04:00:00 13.1 8 Norte 12 Norte 0 -- -- 97
2020-11-08 03:00:00 13.5 8 Norte 12 Nordeste 0 -- -- 97
2020-11-08 02:00:00 13.4 7 Norte 12 Norte 0 -- -- 98
2020-11-08 01:00:00 13.9 8 Norte 10 Norte 0 -- -- 98
2020-11-08 00:00:00 14.5 6 Nordeste 10 Norte 0 -- -- 96
2020-11-07 23:00:00 15.1 6 Norte 10 Norte 0 -- -- 96
2020-11-07 22:00:00 16.1 5 Norte 7 Norte 0 -- -- 94
2020-11-07 21:00:00 16.6 4 Norte 12 Norte 0 -- -- 93
2020-11-07 20:00:00 17.8 0 Calma 4 Nordeste 0 -- -- 89
2020-11-07 19:00:00 19 3 Sudeste 9 Sur 0 -- -- 88
2020-11-07 18:00:00 20 8 Sur 10 Sur 0 -- -- 86
2020-11-07 17:00:00 21.5 9 Sur 15 Sudoeste 0 -- -- 80
2020-11-07 16:00:00 22.1 13 Sudoeste 16 Sudoeste 0 -- -- 77
2020-11-07 15:00:00 21.4 13 Sudoeste 17 Sudoeste 0 -- -- 75
2020-11-07 14:00:00 21.6 13 Sudoeste 16 Sudoeste 0 -- -- 73
2020-11-07 13:00:00 20.9 12 Sudoeste 20 Sudoeste 0 -- -- 78
2020-11-07 12:00:00 20.7 15 Sudoeste 22 Sudoeste 0 -- -- 78
2020-11-07 11:00:00 19.8 16 Sudoeste 22 Oeste 0 -- -- 79
2020-11-07 10:00:00 19.2 17 Oeste 31 Oeste 0 -- -- 79
2020-11-07 09:00:00 18.8 25 Oeste 33 Oeste 0.2 -- -- 79
2020-11-07 08:00:00 18.8 28 Sudoeste 38 Oeste 0 -- -- 80
2020-11-07 07:00:00 18.7 32 Oeste 45 Oeste 0 -- -- 81
2020-11-07 06:00:00 18.7 31 Sudoeste 51 Sudoeste 0 -- -- 82
2020-11-07 05:00:00 18.7 37 Sudoeste 48 Sudoeste 0 -- -- 87
2020-11-07 04:00:00 17.9 35 Sudoeste 42 Sudoeste 0 -- -- 89
2020-11-07 03:00:00 17.3 36 Sudoeste 67 Sur 0.4 -- -- 91
2020-11-07 02:00:00 16.9 39 Sudoeste 64 Sur 2.2 -- -- 88
2020-11-07 01:00:00 19.6 43 Sur 58 Sur 0 -- -- 75
2020-11-07 00:00:00 19.9 31 Sur 41 Sur 0 -- -- 76
2020-11-06 23:00:00 19.4 32 Sur 47 Sudeste 0 -- -- 77
2020-11-06 22:00:00 19.4 36 Sudeste 49 Sudeste 0 -- -- 68
2020-11-06 21:00:00 18.8 24 Sudeste 38 Sudeste 0.2 -- -- 76
2020-11-06 20:00:00 18.7 14 Sur 17 Sur 0 -- -- 87
2020-11-06 19:00:00 18.8 7 Sudeste 13 Sudeste 0 -- -- 87
2020-11-06 18:00:00 19.2 6 Sudoeste 17 Sudoeste 0 -- -- 89
2020-11-06 17:00:00 19.5 14 Oeste 26 Oeste 0 -- -- 85
2020-11-06 16:00:00 20.2 8 Sur 25 Sur 0 -- -- 89
2020-11-06 15:00:00 20.4 21 Sudoeste 29 Sudoeste 0 -- -- 85
2020-11-06 14:00:00 21.7 20 Sur 22 Sur 0 -- -- 79
2020-11-06 13:00:00 22.1 9 Sudeste 15 Sudoeste 0 -- -- 76
2020-11-06 12:00:00 22.2 9 Sudoeste 19 Sudeste 0 -- -- 75
2020-11-06 11:00:00 21.4 6 Oeste 15 Oeste 0 -- -- 75
2020-11-06 10:00:00 20.7 9 Oeste 22 Sudeste 0 -- -- 75
2020-11-06 09:00:00 20.4 14 Sudeste 51 Este 0 -- -- 72
2020-11-06 08:00:00 20 27 Este 50 Este 0 -- -- 73
2020-11-06 07:00:00 19.9 27 Este 45 Este 0 -- -- 72
2020-11-06 06:00:00 19.8 21 Sudeste 37 Sudeste 0 -- -- 73
2020-11-06 05:00:00 19.8 20 Sudeste 37 Sudeste 0 -- -- 70
2020-11-06 04:00:00 19.8 21 Este 39 Sudeste 0 -- -- 70
2020-11-06 03:00:00 19.3 11 Nordeste 34 Sudeste 0 -- -- 70
2020-11-06 02:00:00 20.3 23 Sudeste 38 Sudeste 0 -- -- 66
2020-11-06 01:00:00 20 18 Este 32 Sudeste 0 -- -- 71
2020-11-06 00:00:00 20.7 7 Este 34 Sudeste 0 -- -- 64
2020-11-05 23:00:00 19.8 23 Sudeste 42 Este 0 -- -- 74
2020-11-05 22:00:00 20 29 Este 48 Este 0 -- -- 72
2020-11-05 21:00:00 19.8 24 Este 40 Este 0 -- -- 71
2020-11-05 20:00:00 19.5 21 Este 38 Este 0 -- -- 77
2020-11-05 19:00:00 19.6 24 Este 43 Este 0 -- -- 77
2020-11-05 18:00:00 20.3 25 Sudeste 45 Sudeste 0 -- -- 74
2020-11-05 17:00:00 21.8 28 Este 44 Este 0 -- -- 62
2020-11-05 16:00:00 22.3 24 Este 40 Este 0 -- -- 62
2020-11-05 15:00:00 24 21 Este 33 Sudeste 0 -- -- 51
2020-11-05 14:00:00 24.3 18 Sudeste 34 Sudeste 0 -- -- 50
2020-11-05 13:00:00 23.5 21 Sudeste 35 Sudeste 0 -- -- 48
2020-11-05 12:00:00 21.6 28 Sudeste 37 Sudeste 0 -- -- 57
2020-11-05 11:00:00 19.7 21 Sudeste 31 Sudeste 0 -- -- 65
2020-11-05 10:00:00 18.4 22 Sudeste 41 Sur 0 -- -- 71
2020-11-05 09:00:00 18.3 37 Sur 50 Sur 0 -- -- 76
2020-11-05 08:00:00 18 32 Sur 45 Sur 0 -- -- 76
2020-11-05 07:00:00 18 35 Sur 43 Sur 0.2 -- -- 81
2020-11-05 06:00:00 17.4 19 Sur 44 Sur 0 -- -- 85
2020-11-05 05:00:00 17.3 36 Sur 58 Sur 0 -- -- 87
2020-11-05 04:00:00 16.6 42 Sur 62 Sudeste 1 -- -- 91
2020-11-05 03:00:00 16.1 27 Sur 36 Sur 3 -- -- 94
2020-11-05 02:00:00 16.1 16 Sudeste 28 Sudeste 0.6 -- -- 91
2020-11-05 01:00:00 16.4 16 Sudeste 38 Sur 0.2 -- -- 87
2020-11-05 00:00:00 17.7 33 Sur 46 Sudeste 0 -- -- 86